CJT2 weather

Matheson Island Airport
Matheson Island, Manitoba, Canada

Public forecast

Using degrees Celsius for public forecast. Weather courtesy of forecast.io.

Closest aviation weather report (METAR) to Matheson Island Airport

Closest report is Berens River Airport, 37.8 nm (69.9 km) N. Retrieved 2019/11/21 22:00 UTC (42 minutes ago):

CYBV 212200Z 23005KT 15SM SCT009 SCT120 M10/M12 A3008 RMK SC3AC1 SNW CVR/TRACE LOOSE/LAST STFD OBS/NEXT 221300UTC SLP209

Closest aviation forecast (TAF) to Matheson Island Airport

Closest forecast is Winnipeg / James Armstrong Richardson International Airport, 110.0 nm (203.8 km) S. Retrieved 2019/11/21 18:56 UTC (4 hours ago):

TAF CYWG 211753Z 2118/2218 34010KT P6SM SCT012 OVC030 TEMPO 2118/2122 P6SM -SN BKN012 OVC030 FM212200 30010KT P6SM FEW020 BECMG 2122/2124 21008KT FM220000 21008KT P6SM SKC FM220600 19012KT P6SM SCT008 SCT100 TEMPO 2206/2212 BKN008 FM221200 19015KT P6SM FEW015 SCT220 RMK NXT FCST BY 220000Z